Time;durP1;ratioP1;P1;durP2;ratioP2;P2;SDS_P1;SDS_P2;PMS_P1;PMS_P2;Temp;Humidity;BMP_temperature;BMP_pressure;BME280_temperature;BME280_humidity;BME280_pressure;Samples;Min_cycle;Max_cycle;Signal;HPM_P1;HPM_P2
2021/01/08 00:00:29;;;;;;;35.22;25.50;;;;;;;-1.22;100.00;95549.16;1031903;28;20073;-71
2021/01/08 00:01:00;;;;;;;34.88;25.13;;;;;;;-1.20;100.00;95558.50;1031699;28;20085;-71
2021/01/08 00:01:40;;;;;;;36.22;26.88;;;;;;;-1.16;100.00;95564.41;1031612;28;20097;-72
2021/01/08 00:02:11;;;;;;;35.92;25.55;;;;;;;-1.18;100.00;95556.75;1039860;28;20506;-71
2021/01/08 00:02:42;;;;;;;35.10;24.52;;;;;;;-1.23;100.00;95558.59;1035801;28;20056;-71
2021/01/08 00:03:13;;;;;;;36.33;25.38;;;;;;;-1.24;100.00;95559.50;1035692;28;20295;-71
2021/01/08 00:03:43;;;;;;;37.13;25.98;;;;;;;-1.23;100.00;95558.59;1031522;28;20052;-73
2021/01/08 00:04:14;;;;;;;39.95;27.38;;;;;;;-1.24;100.00;95558.63;1031716;28;20022;-72
2021/01/08 00:04:45;;;;;;;38.03;24.38;;;;;;;-1.30;100.00;95561.41;1027665;28;20085;-72
2021/01/08 00:05:15;;;;;;;35.75;26.38;;;;;;;-1.27;100.00;95558.75;1039803;28;20017;-71
2021/01/08 00:05:46;;;;;;;38.35;27.42;;;;;;;-1.25;100.00;95556.97;1035643;28;20100;-71
2021/01/08 00:06:18;;;;;;;37.88;26.83;;;;;;;-1.27;100.00;95561.31;1023682;29;20023;-71
2021/01/08 00:06:54;;;;;;;38.58;26.27;;;;;;;-1.30;100.00;95557.09;1035863;28;20388;-72
2021/01/08 00:07:25;;;;;;;38.40;27.15;;;;;;;-1.29;100.00;95555.38;1031765;28;20266;-71
2021/01/08 00:07:56;;;;;;;38.35;25.70;;;;;;;-1.30;100.00;95563.97;1035640;28;20272;-72
2021/01/08 00:08:26;;;;;;;42.17;27.25;;;;;;;-1.30;100.00;95558.84;1035682;28;20121;-72
2021/01/08 00:08:57;;;;;;;35.75;24.90;;;;;;;-1.32;100.00;95560.59;1035806;28;20084;-71
2021/01/08 00:09:28;;;;;;;37.08;26.48;;;;;;;-1.34;100.00;95562.38;1036207;28;20073;-72
2021/01/08 00:09:58;;;;;;;38.35;26.42;;;;;;;-1.36;100.00;95559.84;1032344;28;20126;-72
2021/01/08 00:10:29;;;;;;;37.78;27.40;;;;;;;-1.36;100.00;95557.28;1040553;28;20021;-71
2021/01/08 00:11:00;;;;;;;38.15;25.33;;;;;;;-1.34;100.00;95559.81;1044813;28;20017;-71
2021/01/08 00:11:35;;;;;;;35.53;24.75;;;;;;;-1.30;100.00;95548.56;1032520;28;20455;-72
2021/01/08 00:12:06;;;;;;;38.90;26.50;;;;;;;-1.29;100.00;95552.81;1040658;28;20110;-72
2021/01/08 00:12:37;;;;;;;38.00;25.85;;;;;;;-1.23;100.00;95555.19;1032369;28;20326;-71
2021/01/08 00:13:07;;;;;;;34.92;26.33;;;;;;;-1.25;100.00;95550.09;1036495;28;20315;-71
2021/01/08 00:13:38;;;;;;;35.92;26.80;;;;;;;-1.30;100.00;95545.97;1032622;28;20026;-71
2021/01/08 00:14:09;;;;;;;38.10;26.13;;;;;;;-1.28;100.00;95555.31;1032363;28;20022;-72
2021/01/08 00:14:39;;;;;;;37.80;26.38;;;;;;;-1.27;100.00;95551.03;1028318;28;20022;-71
2021/01/08 00:15:10;;;;;;;36.60;26.25;;;;;;;-1.34;100.00;95555.50;1028537;28;20023;-71
2021/01/08 00:15:41;;;;;;;37.13;25.58;;;;;;;-1.42;100.00;95549.78;1032415;28;20105;-72
2021/01/08 00:16:12;;;;;;;35.10;25.20;;;;;;;-1.36;100.00;95554.72;1032334;28;20051;-72
2021/01/08 00:16:42;;;;;;;40.83;27.33;;;;;;;-1.35;100.00;95547.84;1036527;28;20053;-71
2021/01/08 00:17:13;;;;;;;37.20;26.30;;;;;;;-1.28;100.00;95560.47;1036510;28;20026;-72
2021/01/08 00:17:44;;;;;;;36.78;25.90;;;;;;;-1.32;100.00;95551.16;1036595;28;20022;-71
2021/01/08 00:18:14;;;;;;;38.53;26.67;;;;;;;-1.34;100.00;95552.94;1040537;28;20037;-72
2021/01/08 00:18:45;;;;;;;38.88;26.95;;;;;;;-1.36;100.00;95557.28;1044665;28;20119;-72
2021/01/08 00:19:16;;;;;;;37.95;27.40;;;;;;;-1.31;100.00;95557.16;1036401;28;20153;-71
2021/01/08 00:19:47;;;;;;;35.85;26.58;;;;;;;-1.31;100.00;95549.47;1032667;28;20026;-71
2021/01/08 00:20:17;;;;;;;39.30;26.17;;;;;;;-1.38;100.00;95541.91;1032328;28;20096;-72
2021/01/08 00:20:49;;;;;;;36.72;26.50;;;;;;;-1.40;100.00;95553.97;1032466;28;20029;-71
2021/01/08 00:21:20;;;;;;;35.40;25.25;;;;;;;-1.35;100.00;95547.84;1028410;28;20030;-72
2021/01/08 00:21:50;;;;;;;35.53;24.52;;;;;;;-1.36;100.00;95549.56;1036567;28;20296;-72
2021/01/08 00:22:21;;;;;;;38.10;26.33;;;;;;;-1.38;100.00;95543.66;1040620;28;20037;-71
2021/01/08 00:22:53;;;;;;;43.38;25.80;;;;;;;-1.34;100.00;95546.97;1032329;28;20546;-71
2021/01/08 00:23:24;;;;;;;35.88;25.65;;;;;;;-1.42;100.00;95554.91;1032396;28;20116;-71
2021/01/08 00:23:54;;;;;;;36.97;25.83;;;;;;;-1.35;100.00;95548.72;1028478;28;20254;-71
2021/01/08 00:24:25;;;;;;;35.67;26.00;;;;;;;-1.32;100.00;95556.31;1032450;28;20022;-72
2021/01/08 00:24:56;;;;;;;37.30;26.05;;;;;;;-1.37;100.00;95555.59;1028327;28;20131;-71
2021/01/08 00:25:28;;;;;;;38.65;26.75;;;;;;;-1.48;100.00;95557.63;1040519;28;20100;-71
2021/01/08 00:25:59;;;;;;;36.30;26.25;;;;;;;-1.44;100.00;95556.69;1032461;28;20026;-71
2021/01/08 00:26:29;;;;;;;37.65;26.13;;;;;;;-1.52;100.00;95548.34;1036633;28;20257;-72
2021/01/08 00:27:02;;;;;;;39.60;26.38;;;;;;;-1.50;100.00;95555.13;1036356;28;20037;-72
2021/01/08 00:27:35;;;;;;;39.08;26.52;;;;;;;-1.50;100.00;95555.13;1032394;28;20054;-71
2021/01/08 00:28:06;;;;;;;39.90;26.45;;;;;;;-1.48;100.00;95560.22;1032421;28;20610;-71
2021/01/08 00:28:36;;;;;;;36.35;25.58;;;;;;;-1.51;100.00;95548.31;1028378;28;20259;-72
2021/01/08 00:29:08;;;;;;;39.97;26.90;;;;;;;-1.47;100.00;95560.16;1032455;28;20495;-72
2021/01/08 00:29:39;;;;;;;38.33;26.58;;;;;;;-1.45;100.00;95545.53;1040532;28;20021;-71
2021/01/08 00:30:11;;;;;;;37.13;26.45;;;;;;;-1.49;100.00;95550.84;1040511;28;20322;-71
2021/01/08 00:30:42;;;;;;;36.92;26.17;;;;;;;-1.51;100.00;95545.72;1036444;28;20253;-72
2021/01/08 00:31:12;;;;;;;38.83;26.83;;;;;;;-1.46;100.00;95556.72;1036459;28;20261;-71
2021/01/08 00:31:45;;;;;;;40.70;27.35;;;;;;;-1.48;100.00;95552.50;1032401;28;20024;-72
2021/01/08 00:32:16;;;;;;;38.30;27.40;;;;;;;-1.49;100.00;95550.84;1032440;28;20105;-72
2021/01/08 00:32:47;;;;;;;37.17;26.92;;;;;;;-1.48;100.00;95558.50;1032375;28;20261;-72
2021/01/08 00:33:18;;;;;;;40.30;27.15;;;;;;;-1.49;100.00;95556.81;1028262;28;20250;-71
2021/01/08 00:33:49;;;;;;;40.60;27.42;;;;;;;-1.47;100.00;95552.47;1032462;28;20037;-72
2021/01/08 00:34:19;;;;;;;39.05;27.85;;;;;;;-1.51;100.00;95547.47;1036479;28;20068;-71
2021/01/08 00:34:50;;;;;;;38.55;27.25;;;;;;;-1.54;100.00;95542.41;1040586;28;20013;-72
2021/01/08 00:35:21;;;;;;;36.88;26.33;;;;;;;-1.39;100.00;95552.22;1040342;28;20418;-71
2021/01/08 00:35:52;;;;;;;41.28;28.50;;;;;;;-1.45;100.00;95549.84;1036351;28;20046;-72
2021/01/08 00:36:22;;;;;;;38.78;26.10;;;;;;;-1.40;100.00;95558.28;1036483;28;20013;-71
2021/01/08 00:36:54;;;;;;;40.20;26.88;;;;;;;-1.47;100.00;95555.03;1032486;28;20018;-71
2021/01/08 00:37:25;;;;;;;37.55;26.30;;;;;;;-1.52;100.00;95553.47;1028132;28;20169;-72
2021/01/08 00:37:56;;;;;;;39.92;27.02;;;;;;;-1.48;100.00;95555.06;1032244;28;20353;-72
2021/01/08 00:38:27;;;;;;;40.25;25.98;;;;;;;-1.45;100.00;95550.69;1040547;28;20267;-71
2021/01/08 00:38:58;;;;;;;36.47;25.73;;;;;;;-1.45;100.00;95548.13;1028296;28;20019;-71
2021/01/08 00:39:28;;;;;;;40.00;28.10;;;;;;;-1.43;100.00;95556.63;1036306;28;20473;-71
2021/01/08 00:39:59;;;;;;;38.97;27.27;;;;;;;-1.44;100.00;95552.38;1032365;28;20018;-71
2021/01/08 00:40:30;;;;;;;39.80;27.38;;;;;;;-1.42;100.00;95542.91;1032279;28;20553;-72
2021/01/08 00:41:00;;;;;;;38.58;26.88;;;;;;;-1.44;100.00;95554.94;1032346;28;20014;-72
2021/01/08 00:41:33;;;;;;;37.60;26.52;;;;;;;-1.45;100.00;95555.00;1036193;28;20072;-72
2021/01/08 00:42:04;;;;;;;41.08;27.73;;;;;;;-1.44;100.00;95554.13;1036219;28;20014;-72
2021/01/08 00:42:36;;;;;;;40.47;27.20;;;;;;;-1.43;100.00;95556.63;1036404;28;20745;-71
2021/01/08 00:43:07;;;;;;;39.78;27.15;;;;;;;-1.48;100.00;95558.50;1028450;28;20098;-72
2021/01/08 00:43:38;;;;;;;40.40;26.65;;;;;;;-1.46;100.00;95553.31;1036157;28;20267;-72
2021/01/08 00:44:09;;;;;;;40.00;28.13;;;;;;;-1.42;100.00;95558.31;1036369;28;20109;-72
2021/01/08 00:44:39;;;;;;;39.15;27.08;;;;;;;-1.42;100.00;95558.31;1040419;28;20045;-72
2021/01/08 00:45:11;;;;;;;39.28;26.25;;;;;;;-1.40;100.00;95553.13;1036356;28;20041;-73
2021/01/08 00:45:41;;;;;;;39.33;26.00;;;;;;;-1.43;100.00;95554.03;1036203;28;20021;-72
2021/01/08 00:46:12;;;;;;;38.58;26.33;;;;;;;-1.46;100.00;95559.28;1032255;28;20642;-72
2021/01/08 00:46:46;;;;;;;38.28;25.92;;;;;;;-1.46;100.00;95556.72;1032322;28;20022;-72
2021/01/08 00:47:17;;;;;;;39.67;27.75;;;;;;;-1.44;100.00;95557.53;1032104;28;20249;-72
2021/01/08 00:47:48;;;;;;;37.58;26.35;;;;;;;-1.46;100.00;95555.91;1036202;28;20269;-72
2021/01/08 00:48:18;;;;;;;39.42;26.50;;;;;;;-1.40;100.00;95556.53;1036193;28;20557;-72
2021/01/08 00:48:49;;;;;;;36.75;26.38;;;;;;;-1.44;100.00;95551.56;1028385;28;20093;-71
2021/01/08 00:49:20;;;;;;;39.47;28.20;;;;;;;-1.40;100.00;95561.69;1032298;28;20121;-72
2021/01/08 00:49:51;;;;;;;42.45;30.23;;;;;;;-1.35;100.00;95558.97;1036286;28;20486;-72
2021/01/08 00:50:22;;;;;;;36.47;24.08;;;;;;;-1.35;100.00;95558.13;1028304;28;20033;-71
2021/01/08 00:50:59;;;;;;;39.78;26.65;;;;;;;-1.39;100.00;95563.38;1032265;28;20486;-72
2021/01/08 00:51:32;;;;;;;36.13;25.58;;;;;;;-1.35;100.00;95553.84;1032332;28;20121;-72
2021/01/08 00:52:03;;;;;;;42.15;27.13;;;;;;;-1.32;100.00;95552.91;1032319;28;20270;-72
2021/01/08 00:52:34;;;;;;;36.63;26.25;;;;;;;-1.31;100.00;95554.59;1032301;28;20335;-72
2021/01/08 00:53:04;;;;;;;34.92;25.88;;;;;;;-1.32;100.00;95560.59;1036306;28;20253;-72
2021/01/08 00:53:35;;;;;;;36.08;25.15;;;;;;;-1.31;100.00;95554.59;1032438;28;20391;-71
2021/01/08 00:54:07;;;;;;;35.90;25.40;;;;;;;-1.39;100.00;95558.22;1036478;28;20470;-72
2021/01/08 00:54:38;;;;;;;39.55;27.50;;;;;;;-1.42;100.00;95552.34;1040488;28;20021;-71
2021/01/08 00:55:09;;;;;;;39.63;28.08;;;;;;;-1.32;100.00;95561.44;1028278;28;20273;-72
2021/01/08 00:55:40;;;;;;;35.85;26.08;;;;;;;-1.31;100.00;95565.72;1032155;28;20192;-72
2021/01/08 00:56:18;;;;;;;40.13;27.63;;;;;;;-1.33;100.00;95564.06;1040372;28;20268;-71
2021/01/08 00:56:52;;;;;;;37.53;25.20;;;;;;;-1.36;100.00;95562.44;1040539;28;20017;-71
2021/01/08 00:57:22;;;;;;;40.55;27.67;;;;;;;-1.41;100.00;95565.16;1032228;28;20257;-71
2021/01/08 00:57:53;;;;;;;38.13;26.73;;;;;;;-1.42;100.00;95563.44;1028230;28;20325;-72
2021/01/08 00:58:26;;;;;;;38.97;26.73;;;;;;;-1.35;100.00;95565.84;1036221;28;20105;-72
2021/01/08 00:58:57;;;;;;;41.05;26.77;;;;;;;-1.38;100.00;95561.63;1032231;28;20027;-71
2021/01/08 00:59:28;;;;;;;38.78;26.67;;;;;;;-1.37;100.00;95565.88;1036283;28;20288;-72
2021/01/08 00:59:59;;;;;;;38.35;26.45;;;;;;;-1.38;100.00;95564.22;1028184;28;20520;-71
2021/01/08 01:00:30;;;;;;;40.58;28.13;;;;;;;-1.34;100.00;95567.53;1032120;28;20027;-72
2021/01/08 01:01:00;;;;;;;36.80;25.65;;;;;;;-1.35;100.00;95568.41;1036396;28;20265;-71
2021/01/08 01:01:31;;;;;;;38.72;26.38;;;;;;;-1.44;100.00;95564.41;1032356;28;20557;-71
2021/01/08 01:02:02;;;;;;;38.80;26.58;;;;;;;-1.43;100.00;95560.91;1032157;28;20422;-71
2021/01/08 01:02:33;;;;;;;40.47;26.08;;;;;;;-1.42;100.00;95566.03;1032192;28;20022;-72
2021/01/08 01:03:04;;;;;;;40.30;27.25;;;;;;;-1.42;100.00;95555.75;1036208;28;20520;-71
2021/01/08 01:03:35;;;;;;;39.42;28.33;;;;;;;-1.45;100.00;95560.97;1036400;28;20453;-71
2021/01/08 01:04:06;;;;;;;38.45;27.20;;;;;;;-1.52;100.00;95564.63;1032175;28;20281;-72
2021/01/08 01:04:37;;;;;;;38.15;27.15;;;;;;;-1.53;100.00;95573.19;1036336;28;20044;-71
2021/01/08 01:05:08;;;;;;;42.05;28.25;;;;;;;-1.57;100.00;95558.78;1028411;28;20093;-72
2021/01/08 01:05:41;;;;;;;40.10;26.45;;;;;;;-1.55;100.00;95562.13;1032158;28;20128;-71
2021/01/08 01:06:11;;;;;;;39.47;27.75;;;;;;;-1.54;100.00;95565.53;1036280;28;20710;-72
2021/01/08 01:06:42;;;;;;;40.40;27.58;;;;;;;-1.57;100.00;95558.78;1040425;28;20339;-71
2021/01/08 01:07:13;;;;;;;38.72;27.20;;;;;;;-1.51;100.00;95556.00;1036267;28;20116;-71
2021/01/08 01:07:44;;;;;;;35.40;25.75;;;;;;;-1.48;100.00;95562.78;1040473;28;20175;-71
2021/01/08 01:08:15;;;;;;;40.90;27.48;;;;;;;-1.51;100.00;95555.19;1032105;28;20034;-72
2021/01/08 01:08:45;;;;;;;40.00;27.85;;;;;;;-1.51;100.00;95560.31;1036292;28;20590;-72
2021/01/08 01:09:16;;;;;;;40.85;26.88;;;;;;;-1.51;100.00;95561.16;1036250;28;20037;-72
2021/01/08 01:09:47;;;;;;;41.33;27.17;;;;;;;-1.49;100.00;95561.13;1032190;28;20056;-71
2021/01/08 01:10:18;;;;;;;38.03;25.92;;;;;;;-1.44;100.00;95564.41;1036291;28;20076;-71
2021/01/08 01:10:49;;;;;;;39.28;26.85;;;;;;;-1.41;100.00;95567.72;1036275;28;20327;-72
2021/01/08 01:11:20;;;;;;;37.67;26.63;;;;;;;-1.38;100.00;95567.59;1040457;28;20032;-72
2021/01/08 01:11:51;;;;;;;38.38;26.73;;;;;;;-1.44;100.00;95561.81;1032080;28;20037;-72
2021/01/08 01:12:22;;;;;;;39.55;27.17;;;;;;;-1.40;100.00;95564.25;1040296;28;20261;-72
2021/01/08 01:12:53;;;;;;;37.80;26.75;;;;;;;-1.37;100.00;95571.00;1028207;28;20022;-72
2021/01/08 01:13:24;;;;;;;41.03;27.63;;;;;;;-1.38;100.00;95561.63;1028518;28;20498;-72
2021/01/08 01:13:55;;;;;;;40.63;27.13;;;;;;;-1.43;100.00;95569.47;1032205;28;20256;-71
2021/01/08 01:14:26;;;;;;;38.55;26.92;;;;;;;-1.43;100.00;95572.03;1032166;28;20023;-72
2021/01/08 01:14:57;;;;;;;41.60;29.10;;;;;;;-1.41;100.00;95572.00;1032206;28;20698;-71
2021/01/08 01:15:31;;;;;;;39.03;26.75;;;;;;;-1.37;100.00;95569.31;1032173;28;20176;-72
2021/01/08 01:16:01;;;;;;;40.63;27.48;;;;;;;-1.41;100.00;95565.16;1040149;28;20057;-71
2021/01/08 01:16:32;;;;;;;39.22;27.15;;;;;;;-1.42;100.00;95571.16;1040461;28;20271;-72
2021/01/08 01:17:03;;;;;;;39.75;26.55;;;;;;;-1.43;100.00;95568.63;1036194;28;20018;-72
2021/01/08 01:17:42;;;;;;;41.72;26.35;;;;;;;-1.47;100.00;95565.31;1028343;28;20015;-71
2021/01/08 01:18:13;;;;;;;41.17;27.85;;;;;;;-1.46;100.00;95577.28;1036250;28;20249;-71
2021/01/08 01:18:44;;;;;;;42.03;27.40;;;;;;;-1.54;100.00;95574.06;1032098;28;20258;-72
2021/01/08 01:19:15;;;;;;;37.83;27.08;;;;;;;-1.57;100.00;95574.19;1032105;28;20241;-71
2021/01/08 01:19:46;;;;;;;36.42;26.67;;;;;;;-1.51;100.00;95574.00;1040200;28;20264;-72
2021/01/08 01:20:17;;;;;;;38.58;27.35;;;;;;;-1.49;100.00;95561.94;1032284;28;20494;-71
2021/01/08 01:20:48;;;;;;;40.30;27.55;;;;;;;-1.50;100.00;95573.13;1039755;28;20021;-72
2021/01/08 01:21:19;;;;;;;38.20;27.27;;;;;;;-1.52;100.00;95567.19;1035422;28;20014;-71
2021/01/08 01:21:49;;;;;;;41.63;26.55;;;;;;;-1.46;100.00;95569.56;1028247;28;20597;-71
2021/01/08 01:22:20;;;;;;;39.70;26.20;;;;;;;-1.52;100.00;95574.91;1032241;28;20134;-71
2021/01/08 01:22:51;;;;;;;40.75;27.35;;;;;;;-1.50;100.00;95572.25;1036104;28;20041;-72
2021/01/08 01:23:22;;;;;;;41.60;27.58;;;;;;;-1.51;100.00;95573.16;1040314;28;20021;-71
2021/01/08 01:23:52;;;;;;;39.95;27.40;;;;;;;-1.52;100.00;95580.03;1028250;28;20069;-71
2021/01/08 01:24:23;;;;;;;38.05;26.38;;;;;;;-1.49;100.00;95585.06;1036120;28;20018;-71
2021/01/08 01:24:54;;;;;;;40.58;28.15;;;;;;;-1.52;100.00;95577.47;1032131;28;20355;-72
2021/01/08 01:25:25;;;;;;;36.92;26.85;;;;;;;-1.49;100.00;95582.50;1035964;28;20014;-71
2021/01/08 01:25:55;;;;;;;40.08;26.15;;;;;;;-1.51;100.00;95570.59;1036311;28;20029;-71
2021/01/08 01:26:26;;;;;;;40.55;25.25;;;;;;;-1.50;100.00;95577.41;1036178;28;20055;-72
2021/01/08 01:26:58;;;;;;;41.33;27.52;;;;;;;-1.51;100.00;95574.00;1036115;28;20084;-72
2021/01/08 01:27:29;;;;;;;38.28;26.38;;;;;;;-1.49;100.00;95579.09;1036118;28;20024;-72
2021/01/08 01:28:00;;;;;;;38.22;27.17;;;;;;;-1.51;100.00;95581.69;1032130;28;20576;-72
2021/01/08 01:28:31;;;;;;;36.55;25.75;;;;;;;-1.55;100.00;95569.00;1028021;28;20389;-71
2021/01/08 01:29:02;;;;;;;37.05;26.58;;;;;;;-1.51;100.00;95584.28;1032034;28;20022;-73
2021/01/08 01:29:33;;;;;;;38.72;27.40;;;;;;;-1.55;100.00;95572.41;1027942;28;20687;-72
2021/01/08 01:30:06;;;;;;;42.20;27.85;;;;;;;-1.60;100.00;95577.66;1040289;28;20040;-72
2021/01/08 01:30:37;;;;;;;39.20;27.42;;;;;;;-1.53;100.00;95585.22;1040314;28;20018;-72
2021/01/08 01:31:08;;;;;;;37.42;26.00;;;;;;;-1.51;100.00;95583.44;1032046;28;20630;-72
2021/01/08 01:31:39;;;;;;;37.53;27.00;;;;;;;-1.47;100.00;95588.44;1046391;28;20052;-71
2021/01/08 01:32:09;;;;;;;35.90;25.65;;;;;;;-1.43;100.00;95584.03;1045104;28;20025;-72
2021/01/08 01:32:40;;;;;;;40.65;28.30;;;;;;;-1.42;100.00;95578.03;1040070;28;20012;-71
2021/01/08 01:33:11;;;;;;;35.88;26.08;;;;;;;-1.44;100.00;95582.38;1034402;28;20030;-72
2021/01/08 01:33:41;;;;;;;41.00;26.63;;;;;;;-1.43;100.00;95587.44;1036068;28;20112;-72
2021/01/08 01:34:12;;;;;;;37.55;26.33;;;;;;;-1.40;100.00;95582.22;1036164;28;20018;-72
2021/01/08 01:34:43;;;;;;;36.97;26.88;;;;;;;-1.40;100.00;95584.81;1032033;28;20023;-72
2021/01/08 01:35:14;;;;;;;37.00;26.38;;;;;;;-1.44;100.00;95585.78;1040186;28;20044;-72
2021/01/08 01:35:44;;;;;;;39.35;26.95;;;;;;;-1.45;100.00;95578.94;1032045;28;20027;-72
2021/01/08 01:36:16;;;;;;;37.85;25.52;;;;;;;-1.45;100.00;95586.66;1040189;28;20088;-71
2021/01/08 01:36:47;;;;;;;36.47;26.63;;;;;;;-1.46;100.00;95579.84;1040091;28;20095;-71
2021/01/08 01:37:18;;;;;;;37.25;27.17;;;;;;;-1.52;100.00;95587.75;1027910;28;20834;-71
2021/01/08 01:37:49;;;;;;;39.15;26.83;;;;;;;-1.55;100.00;95582.69;1027959;28;20041;-72
2021/01/08 01:38:21;;;;;;;38.90;27.10;;;;;;;-1.52;100.00;95585.19;1036023;28;20053;-71
2021/01/08 01:38:52;;;;;;;37.03;25.80;;;;;;;-1.57;100.00;95581.88;1032096;28;20257;-71
2021/01/08 01:39:22;;;;;;;37.03;26.63;;;;;;;-1.50;100.00;95585.97;1035964;28;20260;-72
2021/01/08 01:39:53;;;;;;;37.13;25.85;;;;;;;-1.49;100.00;95576.53;1031960;28;20390;-72
2021/01/08 01:40:24;;;;;;;39.63;27.50;;;;;;;-1.49;100.00;95576.53;1027913;28;20030;-71
2021/01/08 01:40:56;;;;;;;38.22;27.48;;;;;;;-1.46;100.00;95582.41;1036069;28;20295;-72
2021/01/08 01:41:27;;;;;;;40.33;28.05;;;;;;;-1.40;100.00;95578.81;1028052;28;20352;-72
2021/01/08 01:41:57;;;;;;;38.92;27.65;;;;;;;-1.39;100.00;95581.34;1036046;28;20257;-72
2021/01/08 01:42:28;;;;;;;39.22;27.33;;;;;;;-1.44;100.00;95575.50;1031928;28;20026;-72
2021/01/08 01:42:59;;;;;;;39.90;26.65;;;;;;;-1.60;100.00;95561.41;1036088;28;20536;-72
2021/01/08 01:43:30;;;;;;;37.47;26.25;;;;;;;-1.48;100.00;95581.63;1036120;28;20045;-71
2021/01/08 01:44:00;;;;;;;36.83;26.15;;;;;;;-1.53;100.00;95575.78;1031911;28;20106;-72
2021/01/08 01:44:31;;;;;;;38.38;26.95;;;;;;;-1.53;100.00;95577.50;1031984;28;20026;-71
2021/01/08 01:45:02;;;;;;;38.28;26.52;;;;;;;-1.42;100.00;95581.44;1031957;28;20053;-72
2021/01/08 01:45:33;;;;;;;39.88;27.70;;;;;;;-1.46;100.00;95572.16;1027822;28;20037;-71
2021/01/08 01:46:04;;;;;;;39.08;27.25;;;;;;;-1.35;100.00;95581.25;1031870;28;20289;-72
2021/01/08 01:46:35;;;;;;;36.85;27.75;;;;;;;-1.32;100.00;95576.03;1036134;28;20398;-71
2021/01/08 01:47:05;;;;;;;38.53;28.33;;;;;;;-1.32;100.00;95583.75;1036052;28;20024;-72
2021/01/08 01:47:37;;;;;;;37.05;26.83;;;;;;;-1.39;100.00;95576.22;1036027;28;20052;-71
2021/01/08 01:48:08;;;;;;;42.35;27.50;;;;;;;-1.39;100.00;95578.78;1039888;28;20082;-72
2021/01/08 01:48:39;;;;;;;40.97;27.35;;;;;;;-1.33;100.00;95582.03;1036080;28;20280;-71
2021/01/08 01:49:10;;;;;;;37.47;26.20;;;;;;;-1.35;100.00;95583.81;1036048;28;20261;-71
2021/01/08 01:49:40;;;;;;;40.90;27.45;;;;;;;-1.43;100.00;95577.16;1040002;28;20021;-71
2021/01/08 01:50:11;;;;;;;40.10;27.42;;;;;;;-1.40;100.00;95581.41;1035851;28;20030;-71
2021/01/08 01:50:42;;;;;;;41.40;28.73;;;;;;;-1.50;100.00;95572.25;1036159;28;20025;-71
2021/01/08 01:51:13;;;;;;;42.88;28.48;;;;;;;-1.51;100.00;95580.88;1040039;28;20022;-72
2021/01/08 01:51:44;;;;;;;40.78;28.95;;;;;;;-1.44;100.00;95580.66;1032122;28;20023;-71
2021/01/08 01:52:15;;;;;;;41.83;29.40;;;;;;;-1.44;100.00;95578.06;1035960;28;20240;-72
2021/01/08 01:52:46;;;;;;;46.10;29.15;;;;;;;-1.50;100.00;95580.84;1036057;28;20022;-71
2021/01/08 01:53:17;;;;;;;40.30;28.58;;;;;;;-1.48;100.00;95583.34;1031948;28;20073;-71
2021/01/08 01:53:48;;;;;;;42.72;29.48;;;;;;;-1.40;100.00;95583.97;1032090;28;20018;-72
2021/01/08 01:54:19;;;;;;;44.97;29.50;;;;;;;-1.45;100.00;95586.66;1035850;28;20072;-72
2021/01/08 01:54:50;;;;;;;47.20;31.42;;;;;;;-1.46;100.00;95587.56;1031930;28;20781;-71
2021/01/08 01:55:21;;;;;;;46.60;29.90;;;;;;;-1.48;100.00;95585.91;1031956;28;20092;-72
2021/01/08 01:55:52;;;;;;;44.67;29.65;;;;;;;-1.50;100.00;95580.84;1036104;28;20033;-71
2021/01/08 01:56:23;;;;;;;44.80;29.23;;;;;;;-1.50;100.00;95587.69;1031724;28;20266;-71
2021/01/08 01:56:53;;;;;;;49.97;32.50;;;;;;;-1.52;100.00;95587.75;1027966;28;20141;-71
2021/01/08 01:57:24;;;;;;;48.58;32.03;;;;;;;-1.51;100.00;95588.56;1035932;28;20029;-71
2021/01/08 01:57:55;;;;;;;47.08;31.98;;;;;;;-1.51;100.00;95591.97;1031996;28;20022;-71
2021/01/08 01:58:26;;;;;;;45.30;30.70;;;;;;;-1.52;100.00;95585.19;1039927;28;20082;-72
2021/01/08 01:58:57;;;;;;;44.60;31.15;;;;;;;-1.54;100.00;95588.66;1040145;28;20334;-71
2021/01/08 01:59:28;;;;;;;44.10;29.77;;;;;;;-1.57;100.00;95590.44;1031826;28;20022;-72
2021/01/08 01:59:58;;;;;;;43.47;29.23;;;;;;;-1.59;100.00;95588.81;1031929;28;20113;-71
2021/01/08 02:00:29;;;;;;;43.33;29.75;;;;;;;-1.53;100.00;95588.63;1031833;28;20065;-72
2021/01/08 02:01:00;;;;;;;42.95;29.15;;;;;;;-1.56;100.00;95593.84;1035986;28;20352;-72
2021/01/08 02:01:31;;;;;;;43.28;28.85;;;;;;;-1.64;100.00;95588.09;1027836;28;20269;-72
2021/01/08 02:02:04;;;;;;;45.05;30.63;;;;;;;-1.61;100.00;95582.88;1032046;28;20057;-72
2021/01/08 02:02:40;;;;;;;43.00;29.00;;;;;;;-1.61;100.00;95591.41;1039942;28;20033;-72
2021/01/08 02:03:24;;;;;;;41.05;29.20;;;;;;;-1.61;100.00;95590.56;1023829;28;20271;-72
2021/01/08 02:03:56;;;;;;;41.15;26.73;;;;;;;-1.60;100.00;95589.66;1035984;28;20291;-71
2021/01/08 02:04:27;;;;;;;39.60;27.75;;;;;;;-1.60;100.00;95574.25;1023796;28;20346;-71
2021/01/08 02:04:58;;;;;;;42.90;29.33;;;;;;;-1.55;100.00;95582.69;1035887;28;20265;-71
2021/01/08 02:05:29;;;;;;;43.05;29.02;;;;;;;-1.52;100.00;95587.75;1036045;28;20018;-72
2021/01/08 02:06:03;;;;;;;41.53;29.55;;;;;;;-1.49;100.00;95587.63;1028022;28;20277;-72
2021/01/08 02:06:34;;;;;;;41.80;28.60;;;;;;;-1.47;100.00;95585.03;1031885;28;20265;-72
2021/01/08 02:07:05;;;;;;;41.20;26.60;;;;;;;-1.53;100.00;95582.66;1031891;28;20269;-72
2021/01/08 02:07:38;;;;;;;45.60;30.08;;;;;;;-1.54;100.00;95583.50;1032008;28;20268;-72
2021/01/08 02:08:11;;;;;;;44.00;29.27;;;;;;;-1.53;100.00;95586.03;1027769;28;20026;-72
2021/01/08 02:08:44;;;;;;;41.17;27.95;;;;;;;-1.51;100.00;95581.69;1035933;28;20352;-72
2021/01/08 02:09:15;;;;;;;43.42;28.70;;;;;;;-1.51;100.00;95583.44;1027872;28;20280;-72
2021/01/08 02:09:46;;;;;;;43.38;29.38;;;;;;;-1.62;100.00;95582.00;1031907;28;20762;-71
2021/01/08 02:10:17;;;;;;;41.42;29.23;;;;;;;-1.54;100.00;95583.50;1031929;28;20030;-71
2021/01/08 02:10:59;;;;;;;43.92;28.42;;;;;;;-1.54;100.00;95588.66;1027815;28;20109;-72
2021/01/08 02:11:31;;;;;;;38.75;26.58;;;;;;;-1.50;100.00;95592.81;1035883;28;20847;-71
2021/01/08 02:12:02;;;;;;;38.13;27.15;;;;;;;-1.50;100.00;95585.09;1027931;28;20632;-72
2021/01/08 02:12:33;;;;;;;42.92;27.80;;;;;;;-1.60;100.00;95582.81;1035907;28;20263;-71
2021/01/08 02:13:04;;;;;;;41.70;27.35;;;;;;;-1.58;100.00;95577.63;1027736;28;20034;-72
2021/01/08 02:13:50;;;;;;;43.63;27.88;;;;;;;-1.54;100.00;95589.50;1032092;28;20621;-72
2021/01/08 02:14:27;;;;;;;43.80;29.08;;;;;;;-1.57;100.00;95585.28;1035854;28;20045;-71
2021/01/08 02:14:58;;;;;;;40.58;27.20;;;;;;;-1.59;100.00;95583.66;1035884;28;20264;-72
2021/01/08 02:15:29;;;;;;;43.00;26.88;;;;;;;-1.62;100.00;95586.31;1027824;28;20290;-71
2021/01/08 02:15:59;;;;;;;42.10;29.23;;;;;;;-1.61;100.00;95582.88;1035870;28;20052;-71
2021/01/08 02:16:30;;;;;;;40.97;28.48;;;;;;;-1.55;100.00;95590.38;1036317;28;20088;-71
2021/01/08 02:17:01;;;;;;;38.00;26.10;;;;;;;-1.57;100.00;95590.44;1028350;28;20077;-71
2021/01/08 02:17:32;;;;;;;40.78;27.42;;;;;;;-1.54;100.00;95586.91;1032104;28;20014;-72
2021/01/08 02:18:03;;;;;;;38.50;26.63;;;;;;;-1.57;100.00;95592.16;1036173;28;20018;-71
2021/01/08 02:18:34;;;;;;;39.25;27.13;;;;;;;-1.55;100.00;95587.81;1039921;28;20018;-71
2021/01/08 02:19:08;;;;;;;40.03;28.17;;;;;;;-1.56;100.00;95586.13;1027751;28;20699;-72
2021/01/08 02:19:44;;;;;;;41.63;27.40;;;;;;;-1.57;100.00;95589.59;1035802;28;20646;-72
2021/01/08 02:20:15;;;;;;;40.03;27.08;;;;;;;-1.57;100.00;95585.28;1035912;28;20264;-72
2021/01/08 02:20:46;;;;;;;39.03;27.98;;;;;;;-1.58;100.00;95580.19;1031926;28;20289;-71
2021/01/08 02:21:21;;;;;;;40.90;27.88;;;;;;;-1.53;100.00;95585.22;1031734;28;20014;-71
2021/01/08 02:21:53;;;;;;;41.85;29.48;;;;;;;-1.58;100.00;95581.06;1035910;28;20022;-71
2021/01/08 02:22:26;;;;;;;38.58;25.35;;;;;;;-1.55;100.00;95582.69;1031789;28;20319;-72
2021/01/08 02:23:03;;;;;;;40.58;27.40;;;;;;;-1.55;100.00;95584.41;1035962;28;20307;-71